sensor_id;sensor_type;location;lat;lon;timestamp;P1;durP1;ratioP1;P2;durP2;ratioP2
48534;SDS011;34323;52.022;5.686;2023-09-12T00:00:56;43.40;;;27.73;;
48534;SDS011;34323;52.022;5.686;2023-09-12T00:03:22;39.83;;;27.35;;
48534;SDS011;34323;52.022;5.686;2023-09-12T00:05:52;42.40;;;28.20;;
48534;SDS011;34323;52.022;5.686;2023-09-12T00:08:18;37.60;;;25.60;;
48534;SDS011;34323;52.022;5.686;2023-09-12T00:10:43;36.60;;;24.02;;
48534;SDS011;34323;52.022;5.686;2023-09-12T00:13:09;37.35;;;26.98;;
48534;SDS011;34323;52.022;5.686;2023-09-12T00:15:35;34.08;;;23.77;;
48534;SDS011;34323;52.022;5.686;2023-09-12T00:18:01;36.35;;;25.48;;
48534;SDS011;34323;52.022;5.686;2023-09-12T00:20:27;34.33;;;24.05;;
48534;SDS011;34323;52.022;5.686;2023-09-12T00:22:53;35.88;;;24.17;;
48534;SDS011;34323;52.022;5.686;2023-09-12T00:25:19;38.55;;;23.98;;
48534;SDS011;34323;52.022;5.686;2023-09-12T00:27:46;34.05;;;23.50;;
48534;SDS011;34323;52.022;5.686;2023-09-12T00:30:13;35.60;;;25.80;;
48534;SDS011;34323;52.022;5.686;2023-09-12T00:32:39;36.17;;;25.35;;
48534;SDS011;34323;52.022;5.686;2023-09-12T00:35:05;40.53;;;27.83;;
48534;SDS011;34323;52.022;5.686;2023-09-12T00:37:32;43.08;;;28.23;;
48534;SDS011;34323;52.022;5.686;2023-09-12T00:39:57;45.10;;;28.20;;
48534;SDS011;34323;52.022;5.686;2023-09-12T00:42:26;42.92;;;28.02;;
48534;SDS011;34323;52.022;5.686;2023-09-12T00:44:52;46.13;;;29.52;;
48534;SDS011;34323;52.022;5.686;2023-09-12T00:47:18;50.00;;;29.75;;
48534;SDS011;34323;52.022;5.686;2023-09-12T00:49:46;42.65;;;28.90;;
48534;SDS011;34323;52.022;5.686;2023-09-12T00:52:14;41.47;;;28.27;;
48534;SDS011;34323;52.022;5.686;2023-09-12T00:54:40;44.85;;;28.60;;
48534;SDS011;34323;52.022;5.686;2023-09-12T00:57:06;42.67;;;27.80;;
48534;SDS011;34323;52.022;5.686;2023-09-12T00:59:32;36.05;;;25.05;;
48534;SDS011;34323;52.022;5.686;2023-09-12T01:01:58;38.15;;;25.17;;
48534;SDS011;34323;52.022;5.686;2023-09-12T01:04:26;40.58;;;27.05;;
48534;SDS011;34323;52.022;5.686;2023-09-12T01:06:52;38.70;;;27.10;;
48534;SDS011;34323;52.022;5.686;2023-09-12T01:09:18;35.45;;;25.23;;
48534;SDS011;34323;52.022;5.686;2023-09-12T01:11:44;36.05;;;23.80;;
48534;SDS011;34323;52.022;5.686;2023-09-12T01:14:10;35.83;;;23.33;;
48534;SDS011;34323;52.022;5.686;2023-09-12T01:16:36;31.95;;;22.70;;
48534;SDS011;34323;52.022;5.686;2023-09-12T01:19:02;36.72;;;24.38;;
48534;SDS011;34323;52.022;5.686;2023-09-12T01:27:25;32.80;;;21.92;;
48534;SDS011;34323;52.022;5.686;2023-09-12T01:29:54;30.10;;;20.60;;
48534;SDS011;34323;52.022;5.686;2023-09-12T01:32:22;28.23;;;20.88;;
48534;SDS011;34323;52.022;5.686;2023-09-12T01:34:48;25.77;;;19.75;;
48534;SDS011;34323;52.022;5.686;2023-09-12T01:37:14;33.22;;;23.23;;
48534;SDS011;34323;52.022;5.686;2023-09-12T01:39:40;30.80;;;20.52;;
48534;SDS011;34323;52.022;5.686;2023-09-12T01:42:07;28.95;;;20.63;;
48534;SDS011;34323;52.022;5.686;2023-09-12T01:44:37;27.55;;;19.45;;
48534;SDS011;34323;52.022;5.686;2023-09-12T01:47:03;32.75;;;20.85;;
48534;SDS011;34323;52.022;5.686;2023-09-12T01:49:31;36.08;;;22.95;;
48534;SDS011;34323;52.022;5.686;2023-09-12T01:51:58;30.50;;;21.27;;
48534;SDS011;34323;52.022;5.686;2023-09-12T01:54:25;29.23;;;20.95;;
48534;SDS011;34323;52.022;5.686;2023-09-12T01:56:53;30.98;;;22.88;;
48534;SDS011;34323;52.022;5.686;2023-09-12T01:59:22;33.40;;;24.52;;
48534;SDS011;34323;52.022;5.686;2023-09-12T02:01:50;36.22;;;23.80;;
48534;SDS011;34323;52.022;5.686;2023-09-12T02:04:16;37.35;;;23.35;;
48534;SDS011;34323;52.022;5.686;2023-09-12T02:06:41;35.22;;;23.92;;
48534;SDS011;34323;52.022;5.686;2023-09-12T02:09:07;34.75;;;23.05;;
48534;SDS011;34323;52.022;5.686;2023-09-12T02:11:33;35.92;;;23.10;;
48534;SDS011;34323;52.022;5.686;2023-09-12T02:13:59;35.80;;;22.45;;
48534;SDS011;34323;52.022;5.686;2023-09-12T02:16:24;31.27;;;21.25;;
48534;SDS011;34323;52.022;5.686;2023-09-12T02:18:50;33.20;;;21.73;;
48534;SDS011;34323;52.022;5.686;2023-09-12T02:21:16;29.58;;;19.92;;
48534;SDS011;34323;52.022;5.686;2023-09-12T02:23:42;32.63;;;21.27;;
48534;SDS011;34323;52.022;5.686;2023-09-12T02:26:07;26.25;;;19.13;;
48534;SDS011;34323;52.022;5.686;2023-09-12T02:28:33;29.27;;;19.80;;
48534;SDS011;34323;52.022;5.686;2023-09-12T02:30:58;29.10;;;20.15;;
48534;SDS011;34323;52.022;5.686;2023-09-12T02:33:24;33.72;;;22.02;;
48534;SDS011;34323;52.022;5.686;2023-09-12T02:35:50;28.65;;;20.50;;
48534;SDS011;34323;52.022;5.686;2023-09-12T02:38:17;28.40;;;20.20;;
48534;SDS011;34323;52.022;5.686;2023-09-12T02:40:43;30.90;;;21.10;;
48534;SDS011;34323;52.022;5.686;2023-09-12T02:43:09;35.42;;;22.55;;
48534;SDS011;34323;52.022;5.686;2023-09-12T02:45:35;29.73;;;20.63;;
48534;SDS011;34323;52.022;5.686;2023-09-12T02:48:01;28.90;;;18.92;;
48534;SDS011;34323;52.022;5.686;2023-09-12T02:50:26;26.08;;;19.02;;
48534;SDS011;34323;52.022;5.686;2023-09-12T02:52:52;27.45;;;18.45;;
48534;SDS011;34323;52.022;5.686;2023-09-12T02:55:18;30.27;;;18.08;;
48534;SDS011;34323;52.022;5.686;2023-09-12T02:57:43;24.83;;;18.67;;
48534;SDS011;34323;52.022;5.686;2023-09-12T03:00:09;27.13;;;19.00;;
48534;SDS011;34323;52.022;5.686;2023-09-12T03:02:36;27.88;;;19.05;;
48534;SDS011;34323;52.022;5.686;2023-09-12T03:05:02;29.67;;;18.95;;
48534;SDS011;34323;52.022;5.686;2023-09-12T03:07:29;28.38;;;19.17;;
48534;SDS011;34323;52.022;5.686;2023-09-12T03:09:55;28.00;;;19.55;;
48534;SDS011;34323;52.022;5.686;2023-09-12T03:12:20;29.40;;;20.85;;
48534;SDS011;34323;52.022;5.686;2023-09-12T03:14:46;27.65;;;19.73;;
48534;SDS011;34323;52.022;5.686;2023-09-12T03:17:12;32.67;;;18.70;;
48534;SDS011;34323;52.022;5.686;2023-09-12T03:19:37;27.33;;;20.27;;
48534;SDS011;34323;52.022;5.686;2023-09-12T03:22:03;29.73;;;21.17;;
48534;SDS011;34323;52.022;5.686;2023-09-12T03:24:29;31.98;;;21.35;;
48534;SDS011;34323;52.022;5.686;2023-09-12T03:26:56;29.25;;;18.60;;
48534;SDS011;34323;52.022;5.686;2023-09-12T03:29:21;27.15;;;18.50;;
48534;SDS011;34323;52.022;5.686;2023-09-12T03:31:48;27.35;;;19.65;;
48534;SDS011;34323;52.022;5.686;2023-09-12T03:34:13;30.52;;;20.10;;
48534;SDS011;34323;52.022;5.686;2023-09-12T03:36:39;34.38;;;21.02;;
48534;SDS011;34323;52.022;5.686;2023-09-12T03:39:05;31.38;;;20.85;;
48534;SDS011;34323;52.022;5.686;2023-09-12T03:41:33;29.35;;;21.35;;
48534;SDS011;34323;52.022;5.686;2023-09-12T03:43:59;36.70;;;21.98;;
48534;SDS011;34323;52.022;5.686;2023-09-12T03:46:25;33.25;;;21.50;;
48534;SDS011;34323;52.022;5.686;2023-09-12T03:48:51;32.20;;;20.92;;
48534;SDS011;34323;52.022;5.686;2023-09-12T03:51:17;27.98;;;20.33;;
48534;SDS011;34323;52.022;5.686;2023-09-12T03:53:42;27.00;;;18.77;;
48534;SDS011;34323;52.022;5.686;2023-09-12T03:56:08;35.40;;;21.23;;
48534;SDS011;34323;52.022;5.686;2023-09-12T03:58:37;32.28;;;21.67;;
48534;SDS011;34323;52.022;5.686;2023-09-12T04:01:04;29.90;;;21.45;;
48534;SDS011;34323;52.022;5.686;2023-09-12T04:03:30;28.73;;;21.15;;
48534;SDS011;34323;52.022;5.686;2023-09-12T04:05:55;28.10;;;19.45;;
48534;SDS011;34323;52.022;5.686;2023-09-12T04:08:21;26.23;;;19.55;;
48534;SDS011;34323;52.022;5.686;2023-09-12T04:10:47;29.98;;;19.67;;
48534;SDS011;34323;52.022;5.686;2023-09-12T04:13:13;33.88;;;21.52;;
48534;SDS011;34323;52.022;5.686;2023-09-12T04:15:38;29.13;;;20.33;;
48534;SDS011;34323;52.022;5.686;2023-09-12T04:18:04;28.58;;;20.35;;
48534;SDS011;34323;52.022;5.686;2023-09-12T04:20:30;26.50;;;18.88;;
48534;SDS011;34323;52.022;5.686;2023-09-12T04:22:56;28.38;;;18.85;;
48534;SDS011;34323;52.022;5.686;2023-09-12T04:25:21;25.73;;;17.77;;
48534;SDS011;34323;52.022;5.686;2023-09-12T04:27:47;22.73;;;17.48;;
48534;SDS011;34323;52.022;5.686;2023-09-12T04:30:13;25.73;;;18.40;;
48534;SDS011;34323;52.022;5.686;2023-09-12T04:32:39;26.50;;;17.63;;
48534;SDS011;34323;52.022;5.686;2023-09-12T04:35:04;22.85;;;18.38;;
48534;SDS011;34323;52.022;5.686;2023-09-12T04:37:31;24.63;;;18.05;;
48534;SDS011;34323;52.022;5.686;2023-09-12T04:39:56;23.52;;;17.52;;
48534;SDS011;34323;52.022;5.686;2023-09-12T04:42:22;27.90;;;17.73;;
48534;SDS011;34323;52.022;5.686;2023-09-12T04:44:48;26.17;;;18.05;;
48534;SDS011;34323;52.022;5.686;2023-09-12T04:47:13;25.63;;;17.83;;
48534;SDS011;34323;52.022;5.686;2023-09-12T04:49:39;22.98;;;16.90;;
48534;SDS011;34323;52.022;5.686;2023-09-12T04:52:05;24.75;;;18.33;;
48534;SDS011;34323;52.022;5.686;2023-09-12T04:54:31;23.67;;;16.95;;
48534;SDS011;34323;52.022;5.686;2023-09-12T04:56:57;22.80;;;17.58;;
48534;SDS011;34323;52.022;5.686;2023-09-12T04:59:23;20.63;;;16.48;;
48534;SDS011;34323;52.022;5.686;2023-09-12T05:01:49;24.60;;;17.85;;
48534;SDS011;34323;52.022;5.686;2023-09-12T05:04:15;23.25;;;17.40;;
48534;SDS011;34323;52.022;5.686;2023-09-12T05:06:41;23.63;;;17.75;;
48534;SDS011;34323;52.022;5.686;2023-09-12T05:09:07;21.95;;;17.15;;
48534;SDS011;34323;52.022;5.686;2023-09-12T05:11:34;22.25;;;16.10;;
48534;SDS011;34323;52.022;5.686;2023-09-12T05:13:59;23.00;;;16.77;;
48534;SDS011;34323;52.022;5.686;2023-09-12T05:16:28;18.60;;;15.23;;
48534;SDS011;34323;52.022;5.686;2023-09-12T05:18:54;23.00;;;16.67;;
48534;SDS011;34323;52.022;5.686;2023-09-12T05:21:20;21.45;;;15.82;;
48534;SDS011;34323;52.022;5.686;2023-09-12T05:23:46;24.27;;;17.45;;
48534;SDS011;34323;52.022;5.686;2023-09-12T05:26:12;23.27;;;18.13;;
48534;SDS011;34323;52.022;5.686;2023-09-12T05:28:38;25.75;;;18.67;;
48534;SDS011;34323;52.022;5.686;2023-09-12T05:31:04;28.77;;;19.67;;
48534;SDS011;34323;52.022;5.686;2023-09-12T05:33:29;24.45;;;17.63;;
48534;SDS011;34323;52.022;5.686;2023-09-12T05:35:55;25.95;;;18.20;;
48534;SDS011;34323;52.022;5.686;2023-09-12T05:38:21;27.40;;;19.02;;
48534;SDS011;34323;52.022;5.686;2023-09-12T05:40:48;29.08;;;18.92;;
48534;SDS011;34323;52.022;5.686;2023-09-12T05:43:15;28.52;;;19.13;;
48534;SDS011;34323;52.022;5.686;2023-09-12T05:45:41;30.23;;;19.42;;
48534;SDS011;34323;52.022;5.686;2023-09-12T05:48:07;27.83;;;17.40;;
48534;SDS011;34323;52.022;5.686;2023-09-12T05:50:34;28.10;;;18.80;;
48534;SDS011;34323;52.022;5.686;2023-09-12T05:53:01;27.77;;;18.67;;
48534;SDS011;34323;52.022;5.686;2023-09-12T05:55:27;26.80;;;17.33;;
48534;SDS011;34323;52.022;5.686;2023-09-12T05:57:53;36.78;;;19.92;;
48534;SDS011;34323;52.022;5.686;2023-09-12T06:00:19;30.02;;;18.95;;
48534;SDS011;34323;52.022;5.686;2023-09-12T06:02:46;34.13;;;20.85;;
48534;SDS011;34323;52.022;5.686;2023-09-12T06:05:12;26.35;;;19.27;;
48534;SDS011;34323;52.022;5.686;2023-09-12T06:07:38;28.95;;;18.60;;
48534;SDS011;34323;52.022;5.686;2023-09-12T06:10:05;33.35;;;20.55;;
48534;SDS011;34323;52.022;5.686;2023-09-12T06:12:32;47.80;;;28.52;;
48534;SDS011;34323;52.022;5.686;2023-09-12T06:14:58;36.95;;;22.60;;
48534;SDS011;34323;52.022;5.686;2023-09-12T06:17:24;50.03;;;28.02;;
48534;SDS011;34323;52.022;5.686;2023-09-12T06:19:50;47.42;;;29.13;;
48534;SDS011;34323;52.022;5.686;2023-09-12T06:22:16;59.60;;;33.65;;
48534;SDS011;34323;52.022;5.686;2023-09-12T06:24:43;53.63;;;31.67;;
48534;SDS011;34323;52.022;5.686;2023-09-12T06:27:09;55.40;;;29.83;;
48534;SDS011;34323;52.022;5.686;2023-09-12T06:29:37;51.53;;;29.48;;
48534;SDS011;34323;52.022;5.686;2023-09-12T06:32:03;47.42;;;28.85;;
48534;SDS011;34323;52.022;5.686;2023-09-12T06:34:29;50.47;;;29.02;;
48534;SDS011;34323;52.022;5.686;2023-09-12T06:36:55;43.67;;;27.25;;
48534;SDS011;34323;52.022;5.686;2023-09-12T06:39:20;32.83;;;21.30;;
48534;SDS011;34323;52.022;5.686;2023-09-12T06:41:46;37.38;;;23.20;;
48534;SDS011;34323;52.022;5.686;2023-09-12T06:44:12;37.38;;;22.92;;
48534;SDS011;34323;52.022;5.686;2023-09-12T06:46:37;35.45;;;21.85;;
48534;SDS011;34323;52.022;5.686;2023-09-12T06:49:03;31.63;;;21.33;;
48534;SDS011;34323;52.022;5.686;2023-09-12T06:51:29;41.90;;;23.45;;
48534;SDS011;34323;52.022;5.686;2023-09-12T06:53:55;36.58;;;22.77;;
48534;SDS011;34323;52.022;5.686;2023-09-12T06:56:21;42.28;;;24.17;;
48534;SDS011;34323;52.022;5.686;2023-09-12T06:58:47;43.63;;;25.52;;
48534;SDS011;34323;52.022;5.686;2023-09-12T07:01:13;45.47;;;24.00;;
48534;SDS011;34323;52.022;5.686;2023-09-12T07:03:39;45.03;;;23.90;;
48534;SDS011;34323;52.022;5.686;2023-09-12T07:06:05;46.60;;;27.13;;
48534;SDS011;34323;52.022;5.686;2023-09-12T07:08:31;49.83;;;26.92;;
48534;SDS011;34323;52.022;5.686;2023-09-12T07:10:58;46.72;;;25.73;;
48534;SDS011;34323;52.022;5.686;2023-09-12T07:13:30;46.50;;;27.80;;
48534;SDS011;34323;52.022;5.686;2023-09-12T07:15:56;51.22;;;27.23;;
48534;SDS011;34323;52.022;5.686;2023-09-12T07:18:22;49.95;;;28.40;;
48534;SDS011;34323;52.022;5.686;2023-09-12T07:20:56;48.03;;;26.90;;
48534;SDS011;34323;52.022;5.686;2023-09-12T07:23:25;44.25;;;26.92;;
48534;SDS011;34323;52.022;5.686;2023-09-12T07:25:51;46.67;;;27.00;;
48534;SDS011;34323;52.022;5.686;2023-09-12T07:28:18;46.40;;;27.63;;
48534;SDS011;34323;52.022;5.686;2023-09-12T07:30:47;45.25;;;27.00;;
48534;SDS011;34323;52.022;5.686;2023-09-12T07:33:14;48.47;;;29.15;;
48534;SDS011;34323;52.022;5.686;2023-09-12T07:35:39;52.58;;;29.33;;
48534;SDS011;34323;52.022;5.686;2023-09-12T07:38:05;53.72;;;30.52;;
48534;SDS011;34323;52.022;5.686;2023-09-12T07:40:31;55.83;;;32.35;;
48534;SDS011;34323;52.022;5.686;2023-09-12T07:42:57;68.25;;;35.22;;
48534;SDS011;34323;52.022;5.686;2023-09-12T07:45:22;53.28;;;30.08;;
48534;SDS011;34323;52.022;5.686;2023-09-12T07:47:48;55.80;;;31.75;;
48534;SDS011;34323;52.022;5.686;2023-09-12T07:50:14;53.10;;;31.65;;
48534;SDS011;34323;52.022;5.686;2023-09-12T07:52:40;58.13;;;33.20;;
48534;SDS011;34323;52.022;5.686;2023-09-12T07:55:06;63.95;;;33.90;;
48534;SDS011;34323;52.022;5.686;2023-09-12T07:57:32;62.90;;;34.38;;
48534;SDS011;34323;52.022;5.686;2023-09-12T07:59:59;58.10;;;32.95;;
48534;SDS011;34323;52.022;5.686;2023-09-12T08:02:25;59.03;;;34.63;;
48534;SDS011;34323;52.022;5.686;2023-09-12T08:04:51;62.72;;;34.40;;
48534;SDS011;34323;52.022;5.686;2023-09-12T08:07:18;61.65;;;34.92;;
48534;SDS011;34323;52.022;5.686;2023-09-12T08:09:49;68.40;;;36.35;;
48534;SDS011;34323;52.022;5.686;2023-09-12T08:12:24;71.63;;;37.13;;
48534;SDS011;34323;52.022;5.686;2023-09-12T08:14:52;72.80;;;36.45;;
48534;SDS011;34323;52.022;5.686;2023-09-12T08:17:19;75.25;;;38.25;;
48534;SDS011;34323;52.022;5.686;2023-09-12T08:19:45;65.55;;;37.83;;
48534;SDS011;34323;52.022;5.686;2023-09-12T08:22:11;78.55;;;38.38;;
48534;SDS011;34323;52.022;5.686;2023-09-12T08:24:37;70.65;;;37.75;;
48534;SDS011;34323;52.022;5.686;2023-09-12T08:27:04;73.20;;;37.30;;
48534;SDS011;34323;52.022;5.686;2023-09-12T08:29:31;67.38;;;36.28;;
48534;SDS011;34323;52.022;5.686;2023-09-12T08:31:58;71.88;;;37.63;;
48534;SDS011;34323;52.022;5.686;2023-09-12T08:34:24;65.60;;;36.20;;
48534;SDS011;34323;52.022;5.686;2023-09-12T08:36:50;62.13;;;35.25;;
48534;SDS011;34323;52.022;5.686;2023-09-12T08:39:18;57.67;;;33.83;;
48534;SDS011;34323;52.022;5.686;2023-09-12T08:41:48;55.17;;;32.42;;
48534;SDS011;34323;52.022;5.686;2023-09-12T08:44:15;56.60;;;32.80;;
48534;SDS011;34323;52.022;5.686;2023-09-12T08:46:41;49.97;;;29.77;;
48534;SDS011;34323;52.022;5.686;2023-09-12T08:49:08;50.53;;;32.17;;
48534;SDS011;34323;52.022;5.686;2023-09-12T08:51:38;55.83;;;32.97;;
48534;SDS011;34323;52.022;5.686;2023-09-12T08:54:05;53.88;;;30.42;;
48534;SDS011;34323;52.022;5.686;2023-09-12T08:56:31;44.30;;;27.88;;
48534;SDS011;34323;52.022;5.686;2023-09-12T08:58:58;49.10;;;30.02;;
48534;SDS011;34323;52.022;5.686;2023-09-12T09:01:26;44.72;;;27.33;;
48534;SDS011;34323;52.022;5.686;2023-09-12T09:03:55;39.90;;;25.27;;
48534;SDS011;34323;52.022;5.686;2023-09-12T09:06:22;34.85;;;23.48;;
48534;SDS011;34323;52.022;5.686;2023-09-12T09:08:48;37.97;;;24.77;;
48534;SDS011;34323;52.022;5.686;2023-09-12T09:11:16;39.35;;;23.38;;
48534;SDS011;34323;52.022;5.686;2023-09-12T09:13:42;29.08;;;20.42;;
48534;SDS011;34323;52.022;5.686;2023-09-12T09:16:11;28.45;;;20.08;;
48534;SDS011;34323;52.022;5.686;2023-09-12T09:18:51;25.65;;;17.02;;
48534;SDS011;34323;52.022;5.686;2023-09-12T09:21:28;24.92;;;17.15;;
48534;SDS011;34323;52.022;5.686;2023-09-12T09:23:59;23.05;;;14.68;;
48534;SDS011;34323;52.022;5.686;2023-09-12T09:26:25;21.38;;;14.20;;
48534;SDS011;34323;52.022;5.686;2023-09-12T09:29:14;18.08;;;11.68;;
48534;SDS011;34323;52.022;5.686;2023-09-12T09:31:41;17.88;;;12.73;;
48534;SDS011;34323;52.022;5.686;2023-09-12T09:34:15;17.98;;;12.45;;
48534;SDS011;34323;52.022;5.686;2023-09-12T09:36:42;20.60;;;12.98;;
48534;SDS011;34323;52.022;5.686;2023-09-12T09:39:18;18.42;;;11.77;;
48534;SDS011;34323;52.022;5.686;2023-09-12T09:41:49;19.33;;;12.32;;
48534;SDS011;34323;52.022;5.686;2023-09-12T09:44:16;14.80;;;10.55;;
48534;SDS011;34323;52.022;5.686;2023-09-12T09:46:43;18.90;;;12.48;;
48534;SDS011;34323;52.022;5.686;2023-09-12T09:49:10;18.77;;;12.63;;
48534;SDS011;34323;52.022;5.686;2023-09-12T09:51:42;19.42;;;12.40;;
48534;SDS011;34323;52.022;5.686;2023-09-12T09:56:48;18.65;;;12.57;;
48534;SDS011;34323;52.022;5.686;2023-09-12T09:59:15;17.83;;;11.50;;
48534;SDS011;34323;52.022;5.686;2023-09-12T10:01:43;19.95;;;13.07;;
48534;SDS011;34323;52.022;5.686;2023-09-12T10:04:11;20.95;;;12.32;;
48534;SDS011;34323;52.022;5.686;2023-09-12T10:06:37;17.95;;;12.23;;
48534;SDS011;34323;52.022;5.686;2023-09-12T10:09:11;31.23;;;14.43;;
48534;SDS011;34323;52.022;5.686;2023-09-12T10:11:45;22.95;;;15.15;;
48534;SDS011;34323;52.022;5.686;2023-09-12T10:14:12;20.55;;;13.85;;
48534;SDS011;34323;52.022;5.686;2023-09-12T10:16:45;24.15;;;13.73;;
48534;SDS011;34323;52.022;5.686;2023-09-12T10:19:23;21.60;;;12.02;;
48534;SDS011;34323;52.022;5.686;2023-09-12T10:22:04;17.45;;;11.30;;
48534;SDS011;34323;52.022;5.686;2023-09-12T10:27:02;24.52;;;15.65;;
48534;SDS011;34323;52.022;5.686;2023-09-12T10:29:30;25.45;;;15.68;;
48534;SDS011;34323;52.022;5.686;2023-09-12T10:31:57;28.13;;;17.17;;
48534;SDS011;34323;52.022;5.686;2023-09-12T10:34:24;27.10;;;18.23;;
48534;SDS011;34323;52.022;5.686;2023-09-12T10:36:51;28.13;;;18.05;;
48534;SDS011;34323;52.022;5.686;2023-09-12T10:39:20;25.95;;;17.10;;
48534;SDS011;34323;52.022;5.686;2023-09-12T10:41:47;25.98;;;16.98;;
48534;SDS011;34323;52.022;5.686;2023-09-12T10:44:16;24.75;;;15.52;;
48534;SDS011;34323;52.022;5.686;2023-09-12T10:46:43;28.80;;;17.63;;
48534;SDS011;34323;52.022;5.686;2023-09-12T10:49:11;27.48;;;17.92;;
48534;SDS011;34323;52.022;5.686;2023-09-12T10:51:38;27.65;;;16.45;;
48534;SDS011;34323;52.022;5.686;2023-09-12T10:54:06;25.17;;;16.20;;
48534;SDS011;34323;52.022;5.686;2023-09-12T10:56:33;28.33;;;17.65;;
48534;SDS011;34323;52.022;5.686;2023-09-12T11:01:35;24.60;;;18.20;;
48534;SDS011;34323;52.022;5.686;2023-09-12T11:06:49;26.17;;;17.67;;
48534;SDS011;34323;52.022;5.686;2023-09-12T11:09:25;27.10;;;16.15;;
48534;SDS011;34323;52.022;5.686;2023-09-12T11:11:56;33.10;;;17.65;;
48534;SDS011;34323;52.022;5.686;2023-09-12T11:14:24;25.00;;;16.65;;
48534;SDS011;34323;52.022;5.686;2023-09-12T11:19:45;25.70;;;16.13;;
48534;SDS011;34323;52.022;5.686;2023-09-12T11:22:32;24.10;;;16.00;;
48534;SDS011;34323;52.022;5.686;2023-09-12T11:25:02;28.70;;;17.88;;
48534;SDS011;34323;52.022;5.686;2023-09-12T11:28:15;31.73;;;18.80;;
48534;SDS011;34323;52.022;5.686;2023-09-12T11:30:23;26.35;;;17.90;;
48534;SDS011;34323;52.022;5.686;2023-09-12T11:33:02;26.38;;;16.42;;
48534;SDS011;34323;52.022;5.686;2023-09-12T11:35:29;28.52;;;17.98;;
48534;SDS011;34323;52.022;5.686;2023-09-12T11:38:01;27.88;;;17.92;;
48534;SDS011;34323;52.022;5.686;2023-09-12T11:43:00;24.50;;;15.13;;
48534;SDS011;34323;52.022;5.686;2023-09-12T11:45:26;28.10;;;16.85;;
48534;SDS011;34323;52.022;5.686;2023-09-12T11:47:53;25.33;;;16.30;;
48534;SDS011;34323;52.022;5.686;2023-09-12T11:50:41;32.95;;;17.98;;
48534;SDS011;34323;52.022;5.686;2023-09-12T11:53:09;25.75;;;16.35;;
48534;SDS011;34323;52.022;5.686;2023-09-12T11:55:46;31.05;;;18.13;;
48534;SDS011;34323;52.022;5.686;2023-09-12T11:58:13;31.55;;;16.67;;
48534;SDS011;34323;52.022;5.686;2023-09-12T12:00:50;28.45;;;18.25;;
48534;SDS011;34323;52.022;5.686;2023-09-12T12:03:17;25.77;;;16.48;;
48534;SDS011;34323;52.022;5.686;2023-09-12T12:05:45;28.98;;;15.05;;
48534;SDS011;34323;52.022;5.686;2023-09-12T12:08:11;25.33;;;15.60;;
48534;SDS011;34323;52.022;5.686;2023-09-12T12:10:37;26.08;;;15.13;;
48534;SDS011;34323;52.022;5.686;2023-09-12T12:13:06;24.55;;;14.32;;
48534;SDS011;34323;52.022;5.686;2023-09-12T12:15:36;22.45;;;13.77;;
48534;SDS011;34323;52.022;5.686;2023-09-12T12:18:02;22.77;;;14.60;;
48534;SDS011;34323;52.022;5.686;2023-09-12T12:20:27;23.30;;;14.68;;
48534;SDS011;34323;52.022;5.686;2023-09-12T12:22:55;21.88;;;14.15;;
48534;SDS011;34323;52.022;5.686;2023-09-12T12:25:21;21.58;;;14.15;;
48534;SDS011;34323;52.022;5.686;2023-09-12T12:27:48;18.63;;;13.38;;
48534;SDS011;34323;52.022;5.686;2023-09-12T12:30:14;21.20;;;12.48;;
48534;SDS011;34323;52.022;5.686;2023-09-12T12:32:40;23.02;;;15.13;;
48534;SDS011;34323;52.022;5.686;2023-09-12T12:35:07;18.60;;;12.93;;
48534;SDS011;34323;52.022;5.686;2023-09-12T12:37:33;18.02;;;12.60;;
48534;SDS011;34323;52.022;5.686;2023-09-12T12:40:02;16.35;;;12.45;;
48534;SDS011;34323;52.022;5.686;2023-09-12T12:42:34;21.25;;;13.75;;
48534;SDS011;34323;52.022;5.686;2023-09-12T12:45:10;17.27;;;12.63;;
48534;SDS011;34323;52.022;5.686;2023-09-12T12:47:40;18.88;;;12.27;;
48534;SDS011;34323;52.022;5.686;2023-09-12T12:50:13;17.85;;;11.70;;
48534;SDS011;34323;52.022;5.686;2023-09-12T12:52:39;16.13;;;11.35;;
48534;SDS011;34323;52.022;5.686;2023-09-12T12:55:07;17.73;;;12.25;;
48534;SDS011;34323;52.022;5.686;2023-09-12T12:57:39;15.90;;;10.90;;
48534;SDS011;34323;52.022;5.686;2023-09-12T13:00:13;17.30;;;12.63;;
48534;SDS011;34323;52.022;5.686;2023-09-12T13:02:43;17.35;;;12.23;;
48534;SDS011;34323;52.022;5.686;2023-09-12T13:07:53;21.58;;;12.55;;
48534;SDS011;34323;52.022;5.686;2023-09-12T13:10:20;20.83;;;12.20;;
48534;SDS011;34323;52.022;5.686;2023-09-12T13:12:46;17.98;;;11.75;;
48534;SDS011;34323;52.022;5.686;2023-09-12T13:15:13;18.30;;;11.07;;
48534;SDS011;34323;52.022;5.686;2023-09-12T13:17:40;16.88;;;11.18;;
48534;SDS011;34323;52.022;5.686;2023-09-12T13:20:06;17.30;;;10.60;;
48534;SDS011;34323;52.022;5.686;2023-09-12T13:22:33;14.75;;;10.98;;
48534;SDS011;34323;52.022;5.686;2023-09-12T13:25:00;16.77;;;9.32;;
48534;SDS011;34323;52.022;5.686;2023-09-12T13:27:26;17.58;;;11.32;;
48534;SDS011;34323;52.022;5.686;2023-09-12T13:29:51;16.17;;;11.35;;
48534;SDS011;34323;52.022;5.686;2023-09-12T13:32:17;16.40;;;10.45;;
48534;SDS011;34323;52.022;5.686;2023-09-12T13:34:43;13.32;;;9.35;;
48534;SDS011;34323;52.022;5.686;2023-09-12T13:37:10;17.10;;;9.98;;
48534;SDS011;34323;52.022;5.686;2023-09-12T13:39:35;13.57;;;9.20;;
48534;SDS011;34323;52.022;5.686;2023-09-12T13:42:01;17.45;;;11.23;;
48534;SDS011;34323;52.022;5.686;2023-09-12T13:44:29;12.10;;;9.23;;
48534;SDS011;34323;52.022;5.686;2023-09-12T13:46:55;12.68;;;6.95;;
48534;SDS011;34323;52.022;5.686;2023-09-12T13:49:21;8.52;;;6.47;;
48534;SDS011;34323;52.022;5.686;2023-09-12T13:51:46;8.70;;;5.93;;
48534;SDS011;34323;52.022;5.686;2023-09-12T13:54:12;7.88;;;5.72;;
48534;SDS011;34323;52.022;5.686;2023-09-12T13:56:45;9.27;;;6.53;;
48534;SDS011;34323;52.022;5.686;2023-09-12T13:59:11;12.07;;;7.93;;
48534;SDS011;34323;52.022;5.686;2023-09-12T14:01:37;12.38;;;7.93;;
48534;SDS011;34323;52.022;5.686;2023-09-12T14:04:03;10.43;;;6.65;;
48534;SDS011;34323;52.022;5.686;2023-09-12T14:06:29;9.50;;;5.72;;
48534;SDS011;34323;52.022;5.686;2023-09-12T14:08:55;7.43;;;4.95;;
48534;SDS011;34323;52.022;5.686;2023-09-12T14:11:21;7.22;;;4.55;;
48534;SDS011;34323;52.022;5.686;2023-09-12T14:13:46;6.70;;;4.25;;
48534;SDS011;34323;52.022;5.686;2023-09-12T14:16:12;9.65;;;4.55;;
48534;SDS011;34323;52.022;5.686;2023-09-12T14:18:38;10.63;;;6.60;;
48534;SDS011;34323;52.022;5.686;2023-09-12T14:21:04;8.27;;;3.90;;
48534;SDS011;34323;52.022;5.686;2023-09-12T14:23:30;5.82;;;3.63;;
48534;SDS011;34323;52.022;5.686;2023-09-12T14:25:55;7.15;;;4.43;;
48534;SDS011;34323;52.022;5.686;2023-09-12T14:28:21;9.13;;;4.30;;
48534;SDS011;34323;52.022;5.686;2023-09-12T14:30:47;8.02;;;3.97;;
48534;SDS011;34323;52.022;5.686;2023-09-12T14:33:14;8.60;;;4.63;;
48534;SDS011;34323;52.022;5.686;2023-09-12T14:35:42;9.55;;;4.97;;
48534;SDS011;34323;52.022;5.686;2023-09-12T14:38:08;4.97;;;3.25;;
48534;SDS011;34323;52.022;5.686;2023-09-12T14:40:34;6.20;;;3.70;;
48534;SDS011;34323;52.022;5.686;2023-09-12T14:43:00;5.93;;;3.63;;
48534;SDS011;34323;52.022;5.686;2023-09-12T14:45:29;8.43;;;3.50;;
48534;SDS011;34323;52.022;5.686;2023-09-12T14:47:56;5.93;;;3.22;;